Time;durP1;ratioP1;P1;durP2;ratioP2;P2;SDS_P1;SDS_P2;PMS_P1;PMS_P2;Temp;Humidity;BMP_temperature;BMP_pressure;BME280_temperature;BME280_humidity;BME280_pressure;Samples;Min_cycle;Max_cycle;Signal;HPM_P1;HPM_P2
2020/12/29 00:01:39;;;;;;;23.07;19.10;;;;;;;;;;5113690;28;20185;-50
2020/12/29 00:04:06;;;;;;;24.73;19.10;;;;;;;;;;5111585;28;21210;-50
2020/12/29 00:06:31;;;;;;;21.43;19.07;;;;;;;;;;5113341;28;20650;-50
2020/12/29 00:08:56;;;;;;;25.35;20.17;;;;;;;;;;5107864;28;20611;-51
2020/12/29 00:11:21;;;;;;;20.77;18.60;;;;;;;;;;5102793;28;20224;-51
2020/12/29 00:13:46;;;;;;;21.70;19.40;;;;;;;;;;5109003;28;20222;-51
2020/12/29 00:16:12;;;;;;;23.00;18.83;;;;;;;;;;5112916;28;20184;-50
2020/12/29 00:18:37;;;;;;;25.33;19.47;;;;;;;;;;5113526;28;20677;-50
2020/12/29 00:21:02;;;;;;;23.05;19.88;;;;;;;;;;5112375;28;20185;-51
2020/12/29 00:23:27;;;;;;;20.85;18.55;;;;;;;;;;5105271;27;20170;-50
2020/12/29 00:25:52;;;;;;;20.83;17.70;;;;;;;;;;5112864;28;20261;-50
2020/12/29 00:28:18;;;;;;;22.10;19.00;;;;;;;;;;5112079;28;20182;-51
2020/12/29 00:30:43;;;;;;;21.25;17.50;;;;;;;;;;5112705;28;20272;-51
2020/12/29 00:33:08;;;;;;;19.90;17.08;;;;;;;;;;5110200;28;20601;-52
2020/12/29 00:35:33;;;;;;;26.57;21.43;;;;;;;;;;5113267;28;20175;-51
2020/12/29 00:37:58;;;;;;;19.63;17.33;;;;;;;;;;5111968;28;20452;-51
2020/12/29 00:40:23;;;;;;;23.25;17.98;;;;;;;;;;5112517;28;20267;-51
2020/12/29 00:42:48;;;;;;;24.02;18.95;;;;;;;;;;5109309;28;20637;-51
2020/12/29 00:45:14;;;;;;;23.50;18.40;;;;;;;;;;5110273;28;20169;-50
2020/12/29 00:47:39;;;;;;;22.73;18.30;;;;;;;;;;5112888;28;20229;-50
2020/12/29 00:50:04;;;;;;;19.90;17.30;;;;;;;;;;5116768;27;20707;-51
2020/12/29 00:52:29;;;;;;;20.77;18.40;;;;;;;;;;5103040;28;20216;-50
2020/12/29 00:54:54;;;;;;;20.20;17.27;;;;;;;;;;5112715;28;20172;-52
2020/12/29 00:57:19;;;;;;;23.30;19.23;;;;;;;;;;5112183;28;20557;-51
2020/12/29 00:59:44;;;;;;;21.02;17.70;;;;;;;;;;5106239;27;20216;-51
2020/12/29 01:02:10;;;;;;;19.60;17.08;;;;;;;;;;5110680;28;20231;-51
2020/12/29 01:04:35;;;;;;;20.43;17.37;;;;;;;;;;5111323;28;20201;-51
2020/12/29 01:07:03;;;;;;;22.73;18.48;;;;;;;;;;5111966;28;20232;-50
2020/12/29 01:09:28;;;;;;;20.57;17.57;;;;;;;;;;5112124;28;20254;-51
2020/12/29 01:11:54;;;;;;;22.27;19.23;;;;;;;;;;5103059;28;20698;-51
2020/12/29 01:14:19;;;;;;;19.35;17.25;;;;;;;;;;5112049;28;20200;-51
2020/12/29 01:16:47;;;;;;;22.03;17.90;;;;;;;;;;5111456;28;20193;-51
2020/12/29 01:19:12;;;;;;;18.33;16.43;;;;;;;;;;5112499;28;20291;-51
2020/12/29 01:21:38;;;;;;;20.50;18.13;;;;;;;;;;5108812;27;21132;-50
2020/12/29 01:24:03;;;;;;;21.90;18.63;;;;;;;;;;5112795;27;20204;-49
2020/12/29 01:26:28;;;;;;;20.48;18.27;;;;;;;;;;5111748;28;20171;-51
2020/12/29 01:28:53;;;;;;;20.95;18.60;;;;;;;;;;5109071;28;20184;-49
2020/12/29 01:31:25;;;;;;;21.67;17.80;;;;;;;;;;5111419;28;20648;-50
2020/12/29 01:33:50;;;;;;;19.60;16.60;;;;;;;;;;5108235;27;20211;-51
2020/12/29 01:36:16;;;;;;;17.88;15.98;;;;;;;;;;5112137;28;20631;-50
2020/12/29 01:38:41;;;;;;;20.10;16.60;;;;;;;;;;5108655;28;20206;-50
2020/12/29 01:41:06;;;;;;;19.30;16.77;;;;;;;;;;5115964;27;20176;-51
2020/12/29 01:43:31;;;;;;;20.15;17.95;;;;;;;;;;5110619;28;20188;-50
2020/12/29 01:45:57;;;;;;;19.73;16.23;;;;;;;;;;5111689;28;20166;-50
2020/12/29 01:48:22;;;;;;;20.10;16.70;;;;;;;;;;5109191;28;20180;-50
2020/12/29 01:50:48;;;;;;;21.10;17.40;;;;;;;;;;5110399;28;20181;-52
2020/12/29 01:53:13;;;;;;;19.20;17.17;;;;;;;;;;5116853;27;20202;-51
2020/12/29 01:55:38;;;;;;;17.88;15.73;;;;;;;;;;5111430;28;20204;-51
2020/12/29 01:58:03;;;;;;;17.85;15.18;;;;;;;;;;5108369;28;20546;-50
2020/12/29 02:00:28;;;;;;;17.20;15.40;;;;;;;;;;5107901;28;20164;-51
2020/12/29 02:02:55;;;;;;;19.30;15.90;;;;;;;;;;5104335;28;20182;-51
2020/12/29 02:05:21;;;;;;;17.73;15.73;;;;;;;;;;5097062;28;20208;-50
2020/12/29 02:07:48;;;;;;;20.27;17.30;;;;;;;;;;5110099;27;20634;-50
2020/12/29 02:10:13;;;;;;;19.67;16.60;;;;;;;;;;5107609;28;20180;-50
2020/12/29 02:12:39;;;;;;;21.50;17.23;;;;;;;;;;5110332;28;20611;-51
2020/12/29 02:15:05;;;;;;;22.35;17.35;;;;;;;;;;5110910;28;20961;-50
2020/12/29 02:17:30;;;;;;;17.73;15.70;;;;;;;;;;5110302;28;20182;-50
2020/12/29 02:19:56;;;;;;;20.57;17.17;;;;;;;;;;5108462;28;20660;-51
2020/12/29 02:22:22;;;;;;;19.38;16.17;;;;;;;;;;5108514;28;20176;-50
2020/12/29 02:24:47;;;;;;;18.97;16.20;;;;;;;;;;5110726;28;20200;-51
2020/12/29 02:27:13;;;;;;;18.73;15.50;;;;;;;;;;5102333;28;20612;-50
2020/12/29 02:29:38;;;;;;;19.73;15.95;;;;;;;;;;5107961;28;20711;-50
2020/12/29 02:32:04;;;;;;;19.65;16.10;;;;;;;;;;5109882;27;20218;-51
2020/12/29 02:34:29;;;;;;;20.53;17.50;;;;;;;;;;5110387;28;20238;-50
2020/12/29 02:36:54;;;;;;;20.02;17.25;;;;;;;;;;5109863;28;20650;-51
2020/12/29 02:39:20;;;;;;;22.70;17.20;;;;;;;;;;5108696;28;20422;-51
2020/12/29 02:41:45;;;;;;;19.23;16.73;;;;;;;;;;5107261;28;20187;-51
2020/12/29 02:44:15;;;;;;;20.47;17.30;;;;;;;;;;5108224;28;20187;-51
2020/12/29 02:46:41;;;;;;;21.90;17.87;;;;;;;;;;5110114;28;20183;-51
2020/12/29 02:49:06;;;;;;;21.60;17.50;;;;;;;;;;5107305;28;20597;-51
2020/12/29 02:51:31;;;;;;;21.52;18.35;;;;;;;;;;5106474;28;20704;-50
2020/12/29 02:53:56;;;;;;;24.35;18.65;;;;;;;;;;5110207;28;20590;-50
2020/12/29 02:56:21;;;;;;;24.13;18.00;;;;;;;;;;5105876;28;20179;-51
2020/12/29 02:58:47;;;;;;;23.35;17.98;;;;;;;;;;5106887;28;20206;-50
2020/12/29 03:01:12;;;;;;;22.10;19.02;;;;;;;;;;5110945;27;20591;-50
2020/12/29 03:03:37;;;;;;;21.77;17.85;;;;;;;;;;5108733;28;20245;-50
2020/12/29 03:06:02;;;;;;;23.75;18.98;;;;;;;;;;5108093;28;20180;-51
2020/12/29 03:08:27;;;;;;;21.25;18.42;;;;;;;;;;5107649;28;20204;-51
2020/12/29 03:10:52;;;;;;;22.67;18.92;;;;;;;;;;5107392;28;20185;-51
2020/12/29 03:13:17;;;;;;;23.23;18.52;;;;;;;;;;5106987;28;20172;-50
2020/12/29 03:15:42;;;;;;;22.10;17.77;;;;;;;;;;5109985;28;20184;-50
2020/12/29 03:18:08;;;;;;;21.10;18.52;;;;;;;;;;5108804;28;20243;-50
2020/12/29 03:20:33;;;;;;;24.58;17.73;;;;;;;;;;5105624;28;20178;-50
2020/12/29 03:22:58;;;;;;;25.13;19.50;;;;;;;;;;5109606;28;20177;-51
2020/12/29 03:25:23;;;;;;;22.90;18.10;;;;;;;;;;5110282;28;20194;-51
2020/12/29 03:27:48;;;;;;;25.30;18.15;;;;;;;;;;5108759;28;20563;-50
2020/12/29 03:30:13;;;;;;;21.40;17.92;;;;;;;;;;5106248;28;20193;-50
2020/12/29 03:32:38;;;;;;;20.80;16.95;;;;;;;;;;5108471;28;20213;-50
2020/12/29 03:35:04;;;;;;;24.02;18.38;;;;;;;;;;5109040;28;20292;-50
2020/12/29 03:37:29;;;;;;;21.33;17.57;;;;;;;;;;5109981;28;20166;-50
2020/12/29 03:39:54;;;;;;;22.60;18.13;;;;;;;;;;5105334;28;20660;-51
2020/12/29 03:42:19;;;;;;;23.77;18.45;;;;;;;;;;5110041;28;20170;-51
2020/12/29 03:44:44;;;;;;;23.38;17.50;;;;;;;;;;5108792;28;20197;-51
2020/12/29 03:47:09;;;;;;;20.97;16.70;;;;;;;;;;5109968;28;20172;-51
2020/12/29 03:49:34;;;;;;;21.00;17.60;;;;;;;;;;5106857;28;20184;-51
2020/12/29 03:52:00;;;;;;;23.92;18.58;;;;;;;;;;5109381;28;20267;-51
2020/12/29 03:54:25;;;;;;;22.92;19.35;;;;;;;;;;5109511;28;20207;-51
2020/12/29 03:56:50;;;;;;;22.23;18.25;;;;;;;;;;5107596;28;20388;-51
2020/12/29 03:59:15;;;;;;;23.17;18.48;;;;;;;;;;5105992;28;20789;-50
2020/12/29 04:01:44;;;;;;;21.20;16.97;;;;;;;;;;5108693;28;20202;-50
2020/12/29 04:04:09;;;;;;;23.87;18.43;;;;;;;;;;5109196;28;20159;-51
2020/12/29 04:06:35;;;;;;;22.87;17.30;;;;;;;;;;5108577;28;21099;-51
2020/12/29 04:09:00;;;;;;;24.77;18.03;;;;;;;;;;5107830;28;20589;-51
2020/12/29 04:11:25;;;;;;;23.07;17.50;;;;;;;;;;5106865;28;20174;-51
2020/12/29 04:13:50;;;;;;;21.42;16.25;;;;;;;;;;5109521;28;20170;-52
2020/12/29 04:16:16;;;;;;;26.13;18.10;;;;;;;;;;5105156;28;20178;-50
2020/12/29 04:18:41;;;;;;;23.23;17.47;;;;;;;;;;5106985;28;20736;-50
2020/12/29 04:21:06;;;;;;;22.98;16.70;;;;;;;;;;5104955;28;20200;-50
2020/12/29 04:23:32;;;;;;;21.80;17.83;;;;;;;;;;5108369;28;20269;-50
2020/12/29 04:25:57;;;;;;;22.80;17.57;;;;;;;;;;5110647;28;20180;-51
2020/12/29 04:28:22;;;;;;;21.20;17.13;;;;;;;;;;5112374;28;20565;-51
2020/12/29 04:30:47;;;;;;;23.93;17.90;;;;;;;;;;5108270;28;20182;-50
2020/12/29 04:33:12;;;;;;;23.70;16.90;;;;;;;;;;5112617;28;20236;-51
2020/12/29 04:35:38;;;;;;;25.55;16.67;;;;;;;;;;5112489;28;20196;-51
2020/12/29 04:38:03;;;;;;;26.35;18.88;;;;;;;;;;5109477;28;20198;-50
2020/12/29 04:40:31;;;;;;;24.35;17.13;;;;;;;;;;5110515;28;20180;-51
2020/12/29 04:42:56;;;;;;;25.13;17.37;;;;;;;;;;5112251;28;20194;-51
2020/12/29 04:45:21;;;;;;;22.65;17.08;;;;;;;;;;5112749;28;20647;-51
2020/12/29 04:47:47;;;;;;;25.90;18.50;;;;;;;;;;5111676;28;20172;-51
2020/12/29 04:50:14;;;;;;;26.20;18.53;;;;;;;;;;5108873;28;20174;-50
2020/12/29 04:52:40;;;;;;;24.00;17.83;;;;;;;;;;5112186;27;20177;-51
2020/12/29 04:55:06;;;;;;;27.80;21.03;;;;;;;;;;5112776;28;20605;-51
2020/12/29 04:57:31;;;;;;;24.83;18.47;;;;;;;;;;5111689;28;20660;-50
2020/12/29 04:59:56;;;;;;;23.03;18.87;;;;;;;;;;5108590;28;20695;-50
2020/12/29 05:02:21;;;;;;;23.53;17.60;;;;;;;;;;5110576;28;20178;-50
2020/12/29 05:04:46;;;;;;;26.53;18.33;;;;;;;;;;5102009;28;20182;-51
2020/12/29 05:07:12;;;;;;;27.13;19.10;;;;;;;;;;5112793;28;20251;-50
2020/12/29 05:09:37;;;;;;;23.93;18.57;;;;;;;;;;5109057;28;20626;-51
2020/12/29 05:12:02;;;;;;;24.13;18.33;;;;;;;;;;5111387;28;20214;-50
2020/12/29 05:14:28;;;;;;;25.23;18.30;;;;;;;;;;5111750;28;20182;-51
2020/12/29 05:16:54;;;;;;;27.57;18.90;;;;;;;;;;5112143;28;20197;-50
2020/12/29 05:19:20;;;;;;;23.83;17.43;;;;;;;;;;5109721;28;20243;-49
2020/12/29 05:21:45;;;;;;;23.40;18.33;;;;;;;;;;5111955;28;20180;-51
2020/12/29 05:24:15;;;;;;;26.97;19.27;;;;;;;;;;5111636;28;20810;-51
2020/12/29 05:26:41;;;;;;;25.77;20.20;;;;;;;;;;5110438;28;20182;-51
2020/12/29 05:29:12;;;;;;;25.33;19.10;;;;;;;;;;5109753;28;20676;-51
2020/12/29 05:31:39;;;;;;;24.20;17.23;;;;;;;;;;5102634;28;20539;-51
2020/12/29 05:34:04;;;;;;;26.80;19.57;;;;;;;;;;5111986;28;21008;-51
2020/12/29 05:36:38;;;;;;;27.57;19.40;;;;;;;;;;5108833;28;20611;-51
2020/12/29 05:39:08;;;;;;;23.70;17.90;;;;;;;;;;5104761;28;20243;-51
2020/12/29 05:41:37;;;;;;;24.40;18.30;;;;;;;;;;5106966;28;20624;-50
2020/12/29 05:44:03;;;;;;;24.93;18.30;;;;;;;;;;5111474;28;20596;-50
2020/12/29 05:46:29;;;;;;;22.10;17.10;;;;;;;;;;5110228;28;20608;-50
2020/12/29 05:48:55;;;;;;;26.53;19.70;;;;;;;;;;5111320;28;20678;-50
2020/12/29 05:51:20;;;;;;;26.83;17.93;;;;;;;;;;5109133;28;20191;-51
2020/12/29 05:53:47;;;;;;;26.40;17.80;;;;;;;;;;5109641;28;20619;-50
2020/12/29 05:56:12;;;;;;;23.97;16.80;;;;;;;;;;5115330;27;20680;-51
2020/12/29 05:58:37;;;;;;;23.50;17.10;;;;;;;;;;5123758;27;20631;-51
2020/12/29 06:01:02;;;;;;;23.10;18.00;;;;;;;;;;5110332;27;20178;-51
2020/12/29 06:03:28;;;;;;;21.00;16.55;;;;;;;;;;5112993;27;20253;-51
2020/12/29 06:05:57;;;;;;;20.87;15.53;;;;;;;;;;5109452;28;20170;-50
2020/12/29 06:08:26;;;;;;;21.67;16.47;;;;;;;;;;5097546;28;20265;-51
2020/12/29 06:10:57;;;;;;;22.53;16.30;;;;;;;;;;5109245;27;21004;-50
2020/12/29 06:13:26;;;;;;;21.40;15.33;;;;;;;;;;5121635;27;20697;-50
2020/12/29 06:15:55;;;;;;;25.37;16.70;;;;;;;;;;5112259;27;20611;-50
2020/12/29 06:18:28;;;;;;;18.90;14.90;;;;;;;;;;5110388;28;20733;-49
2020/12/29 06:20:56;;;;;;;21.03;14.37;;;;;;;;;;5108373;28;21055;-49
2020/12/29 06:23:26;;;;;;;20.90;14.77;;;;;;;;;;5111036;27;21169;-50
2020/12/29 06:25:52;;;;;;;22.47;15.50;;;;;;;;;;5110830;28;20631;-50
2020/12/29 06:28:18;;;;;;;25.97;16.37;;;;;;;;;;5110059;28;21226;-51
2020/12/29 06:30:44;;;;;;;18.03;14.67;;;;;;;;;;5109027;27;20546;-50
2020/12/29 06:33:11;;;;;;;21.90;14.40;;;;;;;;;;5110291;28;20604;-50
2020/12/29 06:35:36;;;;;;;18.17;14.10;;;;;;;;;;5110527;28;20195;-50
2020/12/29 06:38:07;;;;;;;17.27;13.80;;;;;;;;;;5109290;28;20728;-51
2020/12/29 06:40:32;;;;;;;18.03;13.77;;;;;;;;;;5109044;28;20182;-50
2020/12/29 06:42:57;;;;;;;18.60;13.50;;;;;;;;;;5109707;28;21183;-49
2020/12/29 06:45:23;;;;;;;18.40;14.80;;;;;;;;;;5110756;28;20203;-49
2020/12/29 06:47:48;;;;;;;21.27;14.73;;;;;;;;;;5109543;28;20182;-50
2020/12/29 06:50:28;;;;;;;17.30;13.77;;;;;;;;;;5107192;28;20183;-49
2020/12/29 06:52:57;;;;;;;20.40;13.70;;;;;;;;;;5109766;28;20198;-50
2020/12/29 06:55:23;;;;;;;19.10;13.97;;;;;;;;;;5110474;28;20592;-50
2020/12/29 06:57:51;;;;;;;16.50;13.10;;;;;;;;;;5109269;28;21110;-50
2020/12/29 07:00:17;;;;;;;17.03;12.70;;;;;;;;;;5108057;28;20521;-50
2020/12/29 07:02:44;;;;;;;16.67;13.00;;;;;;;;;;5108919;28;20612;-50
2020/12/29 07:05:13;;;;;;;15.40;12.17;;;;;;;;;;5110554;28;20604;-50
2020/12/29 07:07:55;;;;;;;16.20;12.50;;;;;;;;;;5109129;28;21283;-50
2020/12/29 07:10:21;;;;;;;12.57;10.70;;;;;;;;;;5101469;28;20609;-50
2020/12/29 07:12:47;;;;;;;13.73;10.70;;;;;;;;;;5107741;27;20670;-51
2020/12/29 07:15:13;;;;;;;13.77;11.93;;;;;;;;;;5109591;27;20175;-50
2020/12/29 07:17:38;;;;;;;15.63;12.07;;;;;;;;;;5111647;28;20605;-50
2020/12/29 07:20:11;;;;;;;15.93;11.90;;;;;;;;;;5105318;28;20425;-50
2020/12/29 07:22:37;;;;;;;14.97;12.50;;;;;;;;;;5102595;28;20186;-50
2020/12/29 07:25:02;;;;;;;15.70;12.70;;;;;;;;;;5107807;28;20635;-50
2020/12/29 07:27:29;;;;;;;16.40;13.67;;;;;;;;;;5107690;28;20603;-50
2020/12/29 07:29:58;;;;;;;17.57;13.50;;;;;;;;;;5105289;28;20821;-50
2020/12/29 07:32:23;;;;;;;15.20;13.57;;;;;;;;;;5105573;28;20687;-50
2020/12/29 07:34:49;;;;;;;14.37;12.33;;;;;;;;;;5105361;28;20701;-48
2020/12/29 07:37:14;;;;;;;13.10;11.70;;;;;;;;;;5108827;28;20194;-49
2020/12/29 07:39:40;;;;;;;15.57;12.60;;;;;;;;;;5103599;28;20226;-48
2020/12/29 07:42:05;;;;;;;14.97;11.67;;;;;;;;;;5103956;28;20210;-48
2020/12/29 07:44:31;;;;;;;14.50;12.93;;;;;;;;;;5105794;28;20239;-49
2020/12/29 07:46:56;;;;;;;15.97;12.10;;;;;;;;;;5104974;28;20222;-49
2020/12/29 07:49:21;;;;;;;15.07;12.38;;;;;;;;;;5105567;28;20640;-49
2020/12/29 07:51:47;;;;;;;13.68;11.88;;;;;;;;;;5102519;28;20549;-49
2020/12/29 07:54:12;;;;;;;14.83;12.47;;;;;;;;;;5098926;28;20187;-50
2020/12/29 07:56:38;;;;;;;16.00;12.60;;;;;;;;;;5106051;28;20181;-50
2020/12/29 07:59:09;;;;;;;13.77;12.23;;;;;;;;;;5105100;28;20689;-49
2020/12/29 08:01:55;;;;;;;14.93;11.50;;;;;;;;;;5098788;27;20222;-49
2020/12/29 08:04:24;;;;;;;13.27;11.03;;;;;;;;;;5109887;28;20594;-50
2020/12/29 08:06:49;;;;;;;17.23;11.90;;;;;;;;;;5100120;28;20716;-50
2020/12/29 08:09:14;;;;;;;13.90;11.90;;;;;;;;;;5111246;27;21202;-49
2020/12/29 08:11:40;;;;;;;14.52;12.50;;;;;;;;;;5107840;28;20592;-49
2020/12/29 08:14:05;;;;;;;19.63;13.50;;;;;;;;;;5109725;28;20195;-49
2020/12/29 08:16:30;;;;;;;16.17;12.33;;;;;;;;;;5100180;27;20669;-49
2020/12/29 08:19:02;;;;;;;15.73;13.05;;;;;;;;;;5111235;27;20272;-50
2020/12/29 08:21:29;;;;;;;16.33;12.53;;;;;;;;;;5109226;28;20196;-49
2020/12/29 08:23:56;;;;;;;27.47;21.47;;;;;;;;;;5107241;28;20664;-50
2020/12/29 08:26:22;;;;;;;34.63;21.80;;;;;;;;;;5108770;27;20683;-50
2020/12/29 08:28:49;;;;;;;36.43;22.80;;;;;;;;;;5101501;28;20700;-50
2020/12/29 08:31:14;;;;;;;38.97;22.97;;;;;;;;;;5110080;28;20207;-49
2020/12/29 08:33:41;;;;;;;35.28;21.00;;;;;;;;;;5108777;28;20793;-49
2020/12/29 08:36:07;;;;;;;33.70;21.23;;;;;;;;;;5112506;28;20175;-49
2020/12/29 08:38:33;;;;;;;29.87;20.13;;;;;;;;;;5110125;28;20672;-50
2020/12/29 08:41:21;;;;;;;29.10;18.80;;;;;;;;;;5097633;28;20635;-50
2020/12/29 08:43:50;;;;;;;19.90;14.30;;;;;;;;;;5103695;27;20181;-49
2020/12/29 08:46:17;;;;;;;24.70;19.93;;;;;;;;;;5115967;27;20638;-50
2020/12/29 08:49:11;;;;;;;17.40;14.80;;;;;;;;;;5108093;28;20610;-50
2020/12/29 08:51:40;;;;;;;22.77;17.53;;;;;;;;;;5083187;28;20998;-50
2020/12/29 08:54:10;;;;;;;18.63;14.90;;;;;;;;;;5107086;27;20617;-50
2020/12/29 08:56:35;;;;;;;19.30;15.40;;;;;;;;;;5111766;28;20594;-49
2020/12/29 08:59:11;;;;;;;16.87;13.73;;;;;;;;;;5111147;28;21303;-48
2020/12/29 09:01:37;;;;;;;13.10;11.80;;;;;;;;;;5097865;28;20184;-48
2020/12/29 09:04:21;;;;;;;13.30;11.80;;;;;;;;;;5091660;28;20568;-49
2020/12/29 09:06:54;;;;;;;13.60;12.10;;;;;;;;;;5103750;28;20647;-49
2020/12/29 09:09:19;;;;;;;13.50;11.67;;;;;;;;;;5112150;28;20581;-48
2020/12/29 09:11:44;;;;;;;13.85;12.18;;;;;;;;;;5107682;27;20617;-48
2020/12/29 09:14:09;;;;;;;14.93;12.43;;;;;;;;;;5112230;28;20173;-49
2020/12/29 09:16:34;;;;;;;12.88;11.10;;;;;;;;;;5110962;28;20184;-49
2020/12/29 09:19:12;;;;;;;14.07;12.23;;;;;;;;;;5111710;28;20717;-49
2020/12/29 09:21:37;;;;;;;13.90;11.90;;;;;;;;;;5109037;28;20181;-48
2020/12/29 09:24:03;;;;;;;13.00;11.63;;;;;;;;;;5110553;28;20627;-48
2020/12/29 09:26:28;;;;;;;14.03;12.30;;;;;;;;;;5111781;28;20586;-49
2020/12/29 09:28:54;;;;;;;12.20;11.00;;;;;;;;;;5111589;28;20584;-49
2020/12/29 09:31:25;;;;;;;12.40;11.10;;;;;;;;;;5108262;28;20182;-48
2020/12/29 09:33:51;;;;;;;13.40;12.00;;;;;;;;;;5108150;28;20594;-49
2020/12/29 09:36:19;;;;;;;13.00;11.70;;;;;;;;;;5110414;28;20622;-49
2020/12/29 09:38:46;;;;;;;12.87;11.57;;;;;;;;;;5108726;28;20223;-49
2020/12/29 09:41:11;;;;;;;11.93;10.83;;;;;;;;;;5108269;28;20658;-49
2020/12/29 09:43:36;;;;;;;12.80;11.52;;;;;;;;;;5111330;28;20598;-49
2020/12/29 09:46:01;;;;;;;12.18;10.98;;;;;;;;;;5110329;28;20193;-49
2020/12/29 09:48:27;;;;;;;13.77;11.57;;;;;;;;;;5111428;28;20630;-49
2020/12/29 09:50:53;;;;;;;11.43;10.27;;;;;;;;;;5108337;28;20189;-50
2020/12/29 09:53:18;;;;;;;10.30;9.30;;;;;;;;;;5109022;28;20185;-49
2020/12/29 09:55:43;;;;;;;9.07;8.10;;;;;;;;;;5110344;28;20761;-49
2020/12/29 09:58:08;;;;;;;9.77;8.57;;;;;;;;;;5111227;28;20678;-49
2020/12/29 10:00:33;;;;;;;9.33;8.50;;;;;;;;;;5098528;27;20632;-49
2020/12/29 10:02:59;;;;;;;7.50;6.90;;;;;;;;;;5093242;28;20168;-52
2020/12/29 10:05:24;;;;;;;7.43;6.63;;;;;;;;;;5110212;28;20179;-49
2020/12/29 10:07:50;;;;;;;7.33;6.50;;;;;;;;;;5110836;28;20177;-50
2020/12/29 10:10:15;;;;;;;8.17;7.37;;;;;;;;;;5109933;28;20174;-49
2020/12/29 10:12:40;;;;;;;6.33;5.70;;;;;;;;;;5106942;28;20169;-49
2020/12/29 10:15:06;;;;;;;5.97;5.43;;;;;;;;;;5128852;27;20214;-48
2020/12/29 10:17:31;;;;;;;5.67;5.20;;;;;;;;;;5131343;27;20173;-48
2020/12/29 10:19:56;;;;;;;5.70;5.23;;;;;;;;;;5112234;27;20265;-49
2020/12/29 10:22:22;;;;;;;5.25;4.85;;;;;;;;;;5108894;28;20197;-50
2020/12/29 10:24:47;;;;;;;5.23;4.83;;;;;;;;;;5108038;28;20321;-49
2020/12/29 10:27:13;;;;;;;5.10;4.77;;;;;;;;;;5110678;28;20178;-49
2020/12/29 10:29:44;;;;;;;5.60;5.10;;;;;;;;;;5093435;27;20638;-49
2020/12/29 10:32:09;;;;;;;4.17;3.87;;;;;;;;;;5087924;28;20167;-49
2020/12/29 10:34:34;;;;;;;2.60;2.40;;;;;;;;;;5106250;28;20617;-49
2020/12/29 10:36:59;;;;;;;2.03;1.93;;;;;;;;;;5109038;28;20178;-49
2020/12/29 10:39:24;;;;;;;2.10;2.00;;;;;;;;;;5110320;28;20666;-48
2020/12/29 10:41:50;;;;;;;2.20;2.10;;;;;;;;;;5104366;28;20445;-49
2020/12/29 10:44:15;;;;;;;2.20;2.10;;;;;;;;;;5108314;28;20203;-49
2020/12/29 10:46:44;;;;;;;3.33;2.67;;;;;;;;;;5109610;28;20318;-48
2020/12/29 10:49:09;;;;;;;2.90;2.70;;;;;;;;;;5110674;27;20178;-50
2020/12/29 10:51:34;;;;;;;3.95;3.40;;;;;;;;;;5105987;28;20607;-50
2020/12/29 10:54:00;;;;;;;3.83;3.53;;;;;;;;;;5118331;27;20177;-50
2020/12/29 10:56:25;;;;;;;3.50;3.30;;;;;;;;;;5110031;27;20186;-50
2020/12/29 10:58:50;;;;;;;4.03;3.72;;;;;;;;;;5108428;28;20192;-50
2020/12/29 11:01:22;;;;;;;4.28;3.97;;;;;;;;;;5107220;28;20206;-49
2020/12/29 11:03:48;;;;;;;4.00;3.70;;;;;;;;;;5109074;27;20184;-49
2020/12/29 11:06:17;;;;;;;3.80;3.50;;;;;;;;;;5106951;28;20603;-49
2020/12/29 11:08:42;;;;;;;4.57;4.17;;;;;;;;;;5101227;27;20565;-50
2020/12/29 11:11:07;;;;;;;4.03;3.63;;;;;;;;;;5113176;27;20626;-50
2020/12/29 11:13:33;;;;;;;3.90;3.60;;;;;;;;;;5116938;27;20236;-51
2020/12/29 11:15:58;;;;;;;3.60;3.30;;;;;;;;;;5109322;28;20871;-50
2020/12/29 11:18:23;;;;;;;4.55;3.55;;;;;;;;;;5109490;28;20225;-49
2020/12/29 11:20:51;;;;;;;4.10;3.80;;;;;;;;;;5108770;28;20236;-50
2020/12/29 11:23:17;;;;;;;4.27;3.90;;;;;;;;;;5107311;28;20642;-49
2020/12/29 11:25:42;;;;;;;4.13;3.83;;;;;;;;;;5108153;28;20684;-49
2020/12/29 11:28:07;;;;;;;3.88;3.58;;;;;;;;;;5110209;28;20594;-50
2020/12/29 11:30:32;;;;;;;3.65;3.38;;;;;;;;;;5110688;28;20172;-49
2020/12/29 11:32:57;;;;;;;3.75;3.53;;;;;;;;;;5106779;28;20231;-50
2020/12/29 11:35:22;;;;;;;5.10;4.70;;;;;;;;;;5112264;28;20639;-48
2020/12/29 11:37:47;;;;;;;5.15;4.75;;;;;;;;;;5113678;27;20174;-48
2020/12/29 11:40:13;;;;;;;4.30;3.90;;;;;;;;;;5113431;28;20246;-49
2020/12/29 11:42:38;;;;;;;5.13;4.35;;;;;;;;;;5111665;28;20178;-49
2020/12/29 11:45:03;;;;;;;4.57;4.22;;;;;;;;;;5113269;28;20204;-49
2020/12/29 11:47:29;;;;;;;4.80;4.50;;;;;;;;;;5112909;28;20670;-48
2020/12/29 11:49:54;;;;;;;4.57;4.20;;;;;;;;;;5112305;28;20543;-48
2020/12/29 11:52:22;;;;;;;4.53;4.22;;;;;;;;;;5110665;28;20175;-49
2020/12/29 11:54:47;;;;;;;4.73;4.43;;;;;;;;;;5114196;28;20261;-49
2020/12/29 11:57:12;;;;;;;4.88;4.47;;;;;;;;;;5109953;28;20667;-49
2020/12/29 11:59:40;;;;;;;4.80;4.50;;;;;;;;;;5092848;28;20210;-49
2020/12/29 12:02:06;;;;;;;6.77;6.17;;;;;;;;;;5107296;28;20180;-49
2020/12/29 12:04:31;;;;;;;5.43;5.03;;;;;;;;;;5109838;28;20981;-49
2020/12/29 12:06:56;;;;;;;6.13;5.60;;;;;;;;;;5109579;27;20227;-48
2020/12/29 12:09:21;;;;;;;5.88;5.47;;;;;;;;;;5109778;28;20580;-49
2020/12/29 12:11:46;;;;;;;5.70;5.30;;;;;;;;;;5099644;28;20170;-49
2020/12/29 12:14:11;;;;;;;5.20;4.80;;;;;;;;;;5110323;28;20183;-49
2020/12/29 12:16:37;;;;;;;5.50;5.00;;;;;;;;;;5109482;28;20669;-50
2020/12/29 12:19:02;;;;;;;5.37;4.53;;;;;;;;;;5109931;28;20230;-50
2020/12/29 12:21:31;;;;;;;7.30;4.43;;;;;;;;;;5106427;28;20184;-49
2020/12/29 12:23:59;;;;;;;5.00;4.57;;;;;;;;;;5109960;28;20280;-49
2020/12/29 12:26:25;;;;;;;5.07;4.67;;;;;;;;;;5109290;28;20982;-49
2020/12/29 12:28:50;;;;;;;5.67;5.27;;;;;;;;;;5109721;28;20603;-48
2020/12/29 12:31:16;;;;;;;5.77;5.30;;;;;;;;;;5109508;28;20186;-49
2020/12/29 12:33:41;;;;;;;4.83;4.53;;;;;;;;;;5089927;28;20217;-50
2020/12/29 12:36:07;;;;;;;5.13;4.73;;;;;;;;;;5089776;28;20337;-48
2020/12/29 12:38:32;;;;;;;5.30;4.90;;;;;;;;;;5107926;27;20251;-49
2020/12/29 12:40:57;;;;;;;5.23;4.67;;;;;;;;;;5107004;27;20176;-49
2020/12/29 12:43:22;;;;;;;4.97;4.55;;;;;;;;;;5105626;27;20740;-50
2020/12/29 12:45:47;;;;;;;4.50;4.20;;;;;;;;;;5106863;28;20706;-51
2020/12/29 12:48:12;;;;;;;4.63;4.33;;;;;;;;;;5103455;27;20180;-50
2020/12/29 12:50:38;;;;;;;4.25;3.95;;;;;;;;;;5107577;28;20229;-49
2020/12/29 12:53:03;;;;;;;3.77;3.47;;;;;;;;;;5103014;28;20184;-50
2020/12/29 12:55:28;;;;;;;3.70;3.40;;;;;;;;;;5108256;28;20183;-50
2020/12/29 12:57:53;;;;;;;3.22;2.97;;;;;;;;;;5108567;28;20196;-50
2020/12/29 13:00:18;;;;;;;2.13;2.03;;;;;;;;;;5107022;28;20202;-50
2020/12/29 13:02:44;;;;;;;2.10;2.00;;;;;;;;;;5105979;28;20183;-50
2020/12/29 13:05:09;;;;;;;2.13;2.00;;;;;;;;;;5109777;28;20184;-50
2020/12/29 13:07:34;;;;;;;1.77;1.67;;;;;;;;;;5108451;28;20178;-50
2020/12/29 13:09:59;;;;;;;1.80;1.70;;;;;;;;;;5109108;28;20176;-50
2020/12/29 13:12:24;;;;;;;2.00;1.80;;;;;;;;;;5106029;28;20180;-50
2020/12/29 13:14:50;;;;;;;1.87;1.77;;;;;;;;;;5109013;28;20272;-50
2020/12/29 13:17:15;;;;;;;2.20;2.10;;;;;;;;;;5106680;28;20180;-49
2020/12/29 13:19:40;;;;;;;2.35;2.25;;;;;;;;;;5107191;28;20223;-49
2020/12/29 13:22:05;;;;;;;1.73;1.63;;;;;;;;;;5108125;27;20232;-51
2020/12/29 13:24:30;;;;;;;2.10;2.00;;;;;;;;;;5108208;28;20627;-50
2020/12/29 13:26:55;;;;;;;1.85;1.63;;;;;;;;;;5107666;28;20176;-50
2020/12/29 13:29:20;;;;;;;1.80;1.70;;;;;;;;;;5104352;28;20217;-50
2020/12/29 13:31:46;;;;;;;1.42;1.35;;;;;;;;;;5105053;28;20231;-48
2020/12/29 13:34:11;;;;;;;2.10;1.90;;;;;;;;;;5103160;28;20249;-49
2020/12/29 13:36:36;;;;;;;1.63;1.53;;;;;;;;;;5106899;28;20183;-49
2020/12/29 13:39:02;;;;;;;1.30;1.20;;;;;;;;;;5106237;28;20209;-48
2020/12/29 13:41:27;;;;;;;2.00;1.37;;;;;;;;;;5108912;28;20178;-49
2020/12/29 13:43:52;;;;;;;0.93;0.93;;;;;;;;;;5089399;28;20179;-50
2020/12/29 13:46:17;;;;;;;0.90;0.90;;;;;;;;;;5105462;28;20254;-49
2020/12/29 13:48:48;;;;;;;0.90;0.90;;;;;;;;;;5101134;28;20272;-49
2020/12/29 13:51:13;;;;;;;1.20;1.10;;;;;;;;;;5102189;27;20270;-50
2020/12/29 13:53:39;;;;;;;0.63;0.63;;;;;;;;;;5126138;27;20709;-49
2020/12/29 13:56:04;;;;;;;0.87;0.87;;;;;;;;;;5104279;27;20272;-49
2020/12/29 13:58:29;;;;;;;0.80;0.80;;;;;;;;;;5104715;27;20202;-51
2020/12/29 14:00:54;;;;;;;0.80;0.80;;;;;;;;;;5104400;28;20204;-50
2020/12/29 14:03:19;;;;;;;0.90;0.90;;;;;;;;;;5104837;28;20179;-51
2020/12/29 14:05:45;;;;;;;1.20;1.10;;;;;;;;;;5112878;27;20226;-50
2020/12/29 14:08:10;;;;;;;0.90;0.90;;;;;;;;;;5106423;27;20290;-50
2020/12/29 14:10:35;;;;;;;0.77;0.77;;;;;;;;;;5117282;27;20180;-51
2020/12/29 14:13:00;;;;;;;1.05;0.95;;;;;;;;;;5108652;27;20256;-51
2020/12/29 14:15:26;;;;;;;0.90;0.90;;;;;;;;;;5109285;27;20645;-51
2020/12/29 14:17:51;;;;;;;0.90;0.90;;;;;;;;;;5108277;27;20181;-50
2020/12/29 14:20:16;;;;;;;1.00;0.98;;;;;;;;;;5108336;27;20314;-50